createdAt,value
2023-04-07T00:00:00.988Z,7.1
2023-04-07T00:01:00.528Z,7.1
2023-04-07T00:02:01.135Z,7.1
2023-04-07T00:03:00.794Z,7.2
2023-04-07T00:04:01.474Z,7.2
2023-04-07T00:05:01.042Z,7.1
2023-04-07T00:06:00.585Z,7.2
2023-04-07T00:07:01.159Z,7.1
2023-04-07T00:08:00.771Z,7.1
2023-04-07T00:09:01.365Z,7.1
2023-04-07T00:10:00.982Z,7.1
2023-04-07T00:11:00.565Z,7.1
2023-04-07T00:12:01.167Z,7.1
2023-04-07T00:13:00.770Z,7.1
2023-04-07T00:14:01.335Z,7.1
2023-04-07T00:15:00.936Z,7.2
2023-04-07T00:16:00.542Z,7.2
2023-04-07T00:17:01.116Z,7.2
2023-04-07T00:18:00.736Z,7.2
2023-04-07T00:19:01.322Z,7.2
2023-04-07T00:20:00.919Z,7.2
2023-04-07T00:21:00.506Z,7.2
2023-04-07T00:22:01.095Z,7.2
2023-04-07T00:23:00.686Z,7.2
2023-04-07T00:24:01.292Z,7.2
2023-04-07T00:25:00.882Z,7.2
2023-04-07T00:26:01.460Z,7.2
2023-04-07T00:27:01.060Z,7.2
2023-04-07T00:28:00.664Z,7.2
2023-04-07T00:29:01.256Z,7.2
2023-04-07T00:30:00.844Z,7.2
2023-04-07T00:31:01.457Z,7.2
2023-04-07T00:32:01.054Z,7.2
2023-04-07T00:33:00.687Z,7.2
2023-04-07T00:34:01.222Z,7.3
2023-04-07T00:35:02.188Z,7.3
2023-04-07T00:36:00.959Z,7.3
2023-04-07T00:37:00.589Z,7.3
2023-04-07T00:38:01.207Z,7.3
2023-04-07T00:39:00.805Z,7.4
2023-04-07T00:40:01.402Z,7.4
2023-04-07T00:41:00.990Z,7.4
2023-04-07T00:42:00.563Z,7.4
2023-04-07T00:43:01.153Z,7.3
2023-04-07T00:44:00.772Z,7.3
2023-04-07T00:45:01.322Z,7.3
2023-04-07T00:46:00.946Z,7.3
2023-04-07T00:47:00.506Z,7.3
2023-04-07T00:48:01.093Z,7.3
2023-04-07T00:49:00.754Z,7.4
2023-04-07T00:50:01.324Z,7.3
2023-04-07T00:51:00.965Z,7.4
2023-04-07T00:52:00.548Z,7.4
2023-04-07T00:53:01.128Z,7.3
2023-04-07T00:54:00.776Z,7.3
2023-04-07T00:55:01.298Z,7.3
2023-04-07T00:56:00.949Z,7.3
2023-04-07T00:57:00.480Z,7.3
2023-04-07T00:58:01.067Z,7.3
2023-04-07T00:59:00.716Z,7.4
2023-04-07T01:00:01.279Z,7.4
2023-04-07T01:01:00.892Z,7.4
2023-04-07T01:02:01.521Z,7.3
2023-04-07T01:03:01.366Z,7.3
2023-04-07T01:04:00.963Z,7.4
2023-04-07T01:05:01.294Z,7.3
2023-04-07T01:06:00.904Z,7.3
2023-04-07T01:07:00.476Z,7.3
2023-04-07T01:08:01.044Z,7.3
2023-04-07T01:09:00.640Z,7.3
2023-04-07T01:10:01.289Z,7.4
2023-04-07T01:11:00.890Z,7.3
2023-04-07T01:12:01.455Z,7.3
2023-04-07T01:13:01.042Z,7.3
2023-04-07T01:14:00.632Z,7.3
2023-04-07T01:15:01.208Z,7.3
2023-04-07T01:16:00.851Z,7.3
2023-04-07T01:17:01.369Z,7.3
2023-04-07T01:18:01.011Z,7.4
2023-04-07T01:19:00.574Z,7.3
2023-04-07T01:20:01.164Z,7.3
2023-04-07T01:21:00.754Z,7.3
2023-04-07T01:22:01.340Z,7.3
2023-04-07T01:23:00.938Z,7.4
2023-04-07T01:24:00.558Z,7.4
2023-04-07T01:25:01.104Z,7.4
2023-04-07T01:26:00.715Z,7.4
2023-04-07T01:27:01.288Z,7.4
2023-04-07T01:28:00.875Z,7.4
2023-04-07T01:29:01.449Z,7.4
2023-04-07T01:30:01.060Z,7.5
2023-04-07T01:31:00.678Z,7.5
2023-04-07T01:32:01.262Z,7.5
2023-04-07T01:33:00.940Z,7.5
2023-04-07T01:34:01.452Z,7.4
2023-04-07T01:35:01.047Z,7.4
2023-04-07T01:36:00.641Z,7.3
2023-04-07T01:37:01.233Z,7.4
2023-04-07T01:38:00.854Z,7.4
2023-04-07T01:39:01.421Z,7.4
2023-04-07T01:40:01.019Z,7.4
2023-04-07T01:41:00.617Z,7.4
2023-04-07T01:42:01.215Z,7.4
2023-04-07T01:43:00.824Z,7.3
2023-04-07T01:44:01.386Z,7.4
2023-04-07T01:45:00.982Z,7.3
2023-04-07T01:46:00.565Z,7.4
2023-04-07T01:47:01.154Z,7.3
2023-04-07T01:48:00.825Z,7.4
2023-04-07T01:49:01.356Z,7.4
2023-04-07T01:50:00.960Z,7.4
2023-04-07T01:51:00.528Z,7.5
2023-04-07T01:52:01.100Z,7.4
2023-04-07T01:53:00.712Z,7.4
2023-04-07T01:54:01.273Z,7.4
2023-04-07T01:55:00.893Z,7.4
2023-04-07T01:56:00.492Z,7.4
2023-04-07T01:57:01.110Z,7.4
2023-04-07T01:58:00.747Z,7.4
2023-04-07T01:59:01.285Z,7.5
2023-04-07T02:00:00.911Z,7.4
2023-04-07T02:01:01.507Z,7.5
2023-04-07T02:02:01.270Z,7.5
2023-04-07T02:03:00.809Z,7.5
2023-04-07T02:04:01.337Z,7.5
2023-04-07T02:05:00.953Z,7.5
2023-04-07T02:06:00.523Z,7.5
2023-04-07T02:07:01.100Z,7.5
2023-04-07T02:08:00.692Z,7.5
2023-04-07T02:09:01.280Z,7.5
2023-04-07T02:10:00.894Z,7.5
2023-04-07T02:11:01.441Z,7.5
2023-04-07T02:12:01.038Z,7.5
2023-04-07T02:13:00.657Z,7.5
2023-04-07T02:14:01.258Z,7.5
2023-04-07T02:15:00.875Z,7.5
2023-04-07T02:16:01.462Z,7.6
2023-04-07T02:17:01.072Z,7.5
2023-04-07T02:18:00.723Z,7.5
2023-04-07T02:19:01.249Z,7.5
2023-04-07T02:20:00.859Z,7.5
2023-04-07T02:21:01.433Z,7.5
2023-04-07T02:22:01.033Z,7.6
2023-04-07T02:23:00.641Z,7.6
2023-04-07T02:24:01.206Z,7.5
2023-04-07T02:25:00.796Z,7.6
2023-04-07T02:26:01.369Z,7.6
2023-04-07T02:27:00.958Z,7.6
2023-04-07T02:28:00.573Z,7.6
2023-04-07T02:29:01.130Z,7.6
2023-04-07T02:30:00.758Z,7.6
2023-04-07T02:31:01.347Z,7.6
2023-04-07T02:32:00.965Z,7.6
2023-04-07T02:33:00.547Z,7.6
2023-04-07T02:34:01.109Z,7.6
2023-04-07T02:35:00.710Z,7.6
2023-04-07T02:36:01.298Z,7.5
2023-04-07T02:37:00.937Z,7.6
2023-04-07T02:38:01.477Z,7.6
2023-04-07T02:39:01.070Z,7.6
2023-04-07T02:40:00.653Z,7.5
2023-04-07T02:41:01.247Z,7.5
2023-04-07T02:42:00.848Z,7.5
2023-04-07T02:43:01.443Z,7.6
2023-04-07T02:44:01.035Z,7.6
2023-04-07T02:45:00.629Z,7.6
2023-04-07T02:46:01.252Z,7.5
2023-04-07T02:47:00.845Z,7.6
2023-04-07T02:48:01.470Z,7.6
2023-04-07T02:49:01.091Z,7.6
2023-04-07T02:50:00.653Z,7.7
2023-04-07T02:51:01.241Z,7.7
2023-04-07T02:52:00.847Z,7.6
2023-04-07T02:53:01.466Z,7.6
2023-04-07T02:54:01.058Z,7.6
2023-04-07T02:55:00.675Z,7.7
2023-04-07T02:56:01.249Z,7.7
2023-04-07T02:57:00.852Z,7.8
2023-04-07T02:58:00.507Z,7.8
2023-04-07T02:59:01.032Z,7.7
2023-04-07T03:00:00.633Z,7.7
2023-04-07T03:01:01.257Z,7.7
2023-04-07T03:02:00.951Z,7.8
2023-04-07T03:03:01.597Z,7.8
2023-04-07T03:04:01.403Z,7.8
2023-04-07T03:05:01.196Z,7.7
2023-04-07T03:06:00.833Z,7.7
2023-04-07T03:07:01.430Z,7.7
2023-04-07T03:08:01.038Z,7.8
2023-04-07T03:09:00.631Z,7.8
2023-04-07T03:10:01.218Z,7.8
2023-04-07T03:11:00.829Z,7.8
2023-04-07T03:12:01.405Z,7.8
2023-04-07T03:13:01.011Z,7.7
2023-04-07T03:14:00.618Z,7.8
2023-04-07T03:15:01.191Z,7.7
2023-04-07T03:16:00.803Z,7.8
2023-04-07T03:17:01.419Z,7.8
2023-04-07T03:18:01.043Z,7.8
2023-04-07T03:19:00.592Z,7.8
2023-04-07T03:20:01.164Z,7.8
2023-04-07T03:21:00.991Z,7.8
2023-04-07T03:22:01.361Z,7.8
2023-04-07T03:23:00.970Z,7.8
2023-04-07T03:24:00.543Z,7.8
2023-04-07T03:25:01.119Z,7.8
2023-04-07T03:26:00.706Z,7.8
2023-04-07T03:27:01.311Z,7.8
2023-04-07T03:28:00.903Z,7.8
2023-04-07T03:29:00.468Z,7.7
2023-04-07T03:30:01.060Z,7.7
2023-04-07T03:31:00.663Z,7.7
2023-04-07T03:32:01.256Z,7.8
2023-04-07T03:33:00.893Z,7.8
2023-04-07T03:34:01.464Z,7.8
2023-04-07T03:35:01.078Z,7.8
2023-04-07T03:36:00.703Z,7.7
2023-04-07T03:37:01.267Z,7.7
2023-04-07T03:38:00.876Z,7.7
2023-04-07T03:39:01.442Z,7.7
2023-04-07T03:40:01.062Z,7.7
2023-04-07T03:41:00.671Z,7.7
2023-04-07T03:42:01.259Z,7.8
2023-04-07T03:43:00.848Z,7.8
2023-04-07T03:44:01.441Z,7.8
2023-04-07T03:45:01.063Z,7.8
2023-04-07T03:46:00.668Z,7.8
2023-04-07T03:47:01.220Z,7.8
2023-04-07T03:48:00.828Z,7.8
2023-04-07T03:49:01.415Z,7.8
2023-04-07T03:50:01.026Z,7.8
2023-04-07T03:51:00.628Z,7.8
2023-04-07T03:52:01.210Z,7.8
2023-04-07T03:53:00.822Z,7.8
2023-04-07T03:54:01.390Z,7.8
2023-04-07T03:55:01.003Z,7.8
2023-04-07T03:56:00.600Z,7.9
2023-04-07T03:57:01.176Z,7.9
2023-04-07T03:58:00.809Z,7.8
2023-04-07T03:59:01.361Z,7.8
2023-04-07T04:00:00.962Z,7.9
2023-04-07T04:01:00.539Z,7.9
2023-04-07T04:02:01.147Z,7.9
2023-04-07T04:03:00.877Z,7.9
2023-04-07T04:04:01.592Z,7.9
2023-04-07T04:05:01.011Z,8
2023-04-07T04:06:00.646Z,7.9
2023-04-07T04:07:01.162Z,7.9
2023-04-07T04:08:00.766Z,7.9
2023-04-07T04:09:01.334Z,7.9
2023-04-07T04:10:00.948Z,7.8
2023-04-07T04:11:00.526Z,7.9
2023-04-07T04:12:01.091Z,7.8
2023-04-07T04:13:00.728Z,7.8
2023-04-07T04:14:01.281Z,7.9
2023-04-07T04:15:00.874Z,7.9
2023-04-07T04:16:01.591Z,7.9
2023-04-07T04:17:01.231Z,7.9
2023-04-07T04:18:00.791Z,7.8
2023-04-07T04:19:01.271Z,7.9
2023-04-07T04:20:00.882Z,7.8
2023-04-07T04:21:01.445Z,7.8
2023-04-07T04:22:01.058Z,7.8
2023-04-07T04:23:00.644Z,7.8
2023-04-07T04:24:01.242Z,7.8
2023-04-07T04:25:00.829Z,7.9
2023-04-07T04:26:01.411Z,7.8
2023-04-07T04:27:01.000Z,7.8
2023-04-07T04:28:00.586Z,7.8
2023-04-07T04:29:01.194Z,7.8
2023-04-07T04:30:00.780Z,7.8
2023-04-07T04:31:01.381Z,7.8
2023-04-07T04:32:00.981Z,7.8
2023-04-07T04:33:00.595Z,7.8
2023-04-07T04:34:01.151Z,7.8
2023-04-07T04:35:00.751Z,7.8
2023-04-07T04:36:01.352Z,7.8
2023-04-07T04:37:00.942Z,7.8
2023-04-07T04:38:00.550Z,7.8
2023-04-07T04:39:01.113Z,7.8
2023-04-07T04:40:00.736Z,7.8
2023-04-07T04:41:01.303Z,7.8
2023-04-07T04:42:00.896Z,7.8
2023-04-07T04:43:01.463Z,7.8
2023-04-07T04:44:01.402Z,7.8
2023-04-07T04:45:00.697Z,7.8
2023-04-07T04:46:01.280Z,7.8
2023-04-07T04:47:00.921Z,7.8
2023-04-07T04:48:01.463Z,7.8
2023-04-07T04:49:01.140Z,7.8
2023-04-07T04:50:00.685Z,7.8
2023-04-07T04:51:01.280Z,7.8
2023-04-07T04:52:00.886Z,7.8
2023-04-07T04:53:01.484Z,7.7
2023-04-07T04:54:01.099Z,7.8
2023-04-07T04:55:00.679Z,7.8
2023-04-07T04:56:01.261Z,7.7
2023-04-07T04:57:00.861Z,7.7
2023-04-07T04:58:01.450Z,7.7
2023-04-07T04:59:01.166Z,7.8
2023-04-07T05:00:00.661Z,7.8
2023-04-07T05:01:01.284Z,7.7
2023-04-07T05:02:00.946Z,7.7
2023-04-07T05:03:01.551Z,7.7
2023-04-07T05:04:01.423Z,7.7
2023-04-07T05:05:00.782Z,7.7
2023-04-07T05:06:01.289Z,7.7
2023-04-07T05:07:00.933Z,7.7
2023-04-07T05:08:00.485Z,7.7
2023-04-07T05:09:01.060Z,7.7
2023-04-07T05:10:00.701Z,7.7
2023-04-07T05:11:01.224Z,7.6
2023-04-07T05:12:00.842Z,7.6
2023-04-07T05:13:01.414Z,7.7
2023-04-07T05:14:01.008Z,7.7
2023-04-07T05:15:00.604Z,7.6
2023-04-07T05:16:01.228Z,7.7
2023-04-07T05:17:00.844Z,7.7
2023-04-07T05:18:01.441Z,7.6
2023-04-07T05:19:01.063Z,7.7
2023-04-07T05:20:00.619Z,7.7
2023-04-07T05:21:01.193Z,7.7
2023-04-07T05:22:00.806Z,7.7
2023-04-07T05:23:01.364Z,7.7
2023-04-07T05:24:00.957Z,7.6
2023-04-07T05:25:00.527Z,7.6
2023-04-07T05:26:01.124Z,7.6
2023-04-07T05:27:00.768Z,7.6
2023-04-07T05:28:01.357Z,7.6
2023-04-07T05:29:00.947Z,7.5
2023-04-07T05:30:00.532Z,7.5
2023-04-07T05:31:01.109Z,7.5
2023-04-07T05:32:00.737Z,7.5
2023-04-07T05:33:01.332Z,7.5
2023-04-07T05:34:00.920Z,7.5
2023-04-07T05:35:00.497Z,7.5
2023-04-07T05:36:01.151Z,7.5
2023-04-07T05:37:00.716Z,7.5
2023-04-07T05:38:01.302Z,7.6
2023-04-07T05:39:00.898Z,7.6
2023-04-07T05:40:00.475Z,7.6
2023-04-07T05:41:01.064Z,7.5
2023-04-07T05:42:00.686Z,7.5
2023-04-07T05:43:01.245Z,7.5
2023-04-07T05:44:00.835Z,7.5
2023-04-07T05:45:01.429Z,7.6
2023-04-07T05:46:01.026Z,7.5
2023-04-07T05:47:00.629Z,7.5
2023-04-07T05:48:01.225Z,7.6
2023-04-07T05:49:04.690Z,7.6
2023-04-07T05:50:01.406Z,7.6
2023-04-07T05:51:01.030Z,7.5
2023-04-07T05:52:00.624Z,7.5
2023-04-07T05:53:01.196Z,7.6
2023-04-07T05:54:00.785Z,7.5
2023-04-07T05:55:01.357Z,7.5
2023-04-07T05:56:00.968Z,7.5
2023-04-07T05:57:00.540Z,7.5
2023-04-07T05:58:01.129Z,7.5
2023-04-07T05:59:00.770Z,7.5
2023-04-07T06:00:01.299Z,7.5
2023-04-07T06:01:00.891Z,7.5
2023-04-07T06:02:00.562Z,7.5
2023-04-07T06:03:01.137Z,7.5
2023-04-07T06:04:00.750Z,7.5
2023-04-07T06:05:01.309Z,7.5
2023-04-07T06:06:00.916Z,7.5
2023-04-07T06:07:00.522Z,7.5
2023-04-07T06:08:01.091Z,7.4
2023-04-07T06:09:00.689Z,7.5
2023-04-07T06:10:01.283Z,7.4
2023-04-07T06:11:00.868Z,7.5
2023-04-07T06:12:01.480Z,7.5
2023-04-07T06:13:01.069Z,7.5
2023-04-07T06:14:00.678Z,7.5
2023-04-07T06:15:01.265Z,7.5
2023-04-07T06:16:00.863Z,7.5
2023-04-07T06:17:01.532Z,7.5
2023-04-07T06:18:01.231Z,7.5
2023-04-07T06:19:00.675Z,7.5
2023-04-07T06:20:01.291Z,7.5
2023-04-07T06:21:00.905Z,7.5
2023-04-07T06:22:01.465Z,7.6
2023-04-07T06:23:01.093Z,7.6
2023-04-07T06:24:00.688Z,7.7
2023-04-07T06:25:01.287Z,7.6
2023-04-07T06:26:00.894Z,7.6
2023-04-07T06:27:01.468Z,7.7
2023-04-07T06:28:01.066Z,7.7
2023-04-07T06:29:00.658Z,7.7
2023-04-07T06:30:01.274Z,7.6
2023-04-07T06:31:00.869Z,7.7
2023-04-07T06:32:01.470Z,7.6
2023-04-07T06:33:01.109Z,7.7
2023-04-07T06:34:00.678Z,7.7
2023-04-07T06:35:01.271Z,7.7
2023-04-07T06:36:00.856Z,7.7
2023-04-07T06:37:01.503Z,7.8
2023-04-07T06:38:01.153Z,7.7
2023-04-07T06:39:00.673Z,7.7
2023-04-07T06:40:01.245Z,7.7
2023-04-07T06:41:00.831Z,7.7
2023-04-07T06:42:01.446Z,7.8
2023-04-07T06:43:01.044Z,7.8
2023-04-07T06:44:00.654Z,7.8
2023-04-07T06:45:01.218Z,7.8
2023-04-07T06:46:00.846Z,7.8
2023-04-07T06:47:01.395Z,7.8
2023-04-07T06:48:01.037Z,7.8
2023-04-07T06:49:00.636Z,7.9
2023-04-07T06:50:01.246Z,7.8
2023-04-07T06:51:00.861Z,7.8
2023-04-07T06:52:01.450Z,7.9
2023-04-07T06:53:01.064Z,7.9
2023-04-07T06:54:00.681Z,7.9
2023-04-07T06:55:01.234Z,8
2023-04-07T06:56:00.850Z,7.9
2023-04-07T06:57:01.414Z,7.9
2023-04-07T06:58:01.013Z,7.9
2023-04-07T06:59:00.609Z,7.9
2023-04-07T07:00:01.251Z,7.9
2023-04-07T07:01:00.866Z,7.9
2023-04-07T07:02:01.505Z,8
2023-04-07T07:03:01.248Z,8
2023-04-07T07:04:00.725Z,8
2023-04-07T07:05:01.266Z,8
2023-04-07T07:06:00.864Z,8
2023-04-07T07:07:01.440Z,8
2023-04-07T07:08:01.047Z,8
2023-04-07T07:09:00.643Z,8
2023-04-07T07:10:01.253Z,8
2023-04-07T07:11:00.857Z,8
2023-04-07T07:12:02.857Z,8.1
2023-04-07T07:13:00.983Z,8.1
2023-04-07T07:14:00.572Z,8
2023-04-07T07:15:01.167Z,8
2023-04-07T07:16:00.782Z,8
2023-04-07T07:17:01.370Z,8.1
2023-04-07T07:18:01.025Z,8.1
2023-04-07T07:19:00.569Z,8.1
2023-04-07T07:20:01.158Z,8.1
2023-04-07T07:21:00.786Z,8
2023-04-07T07:22:01.331Z,8.1
2023-04-07T07:23:00.920Z,8
2023-04-07T07:24:00.503Z,8
2023-04-07T07:25:01.472Z,8.1
2023-04-07T07:26:00.735Z,8.1
2023-04-07T07:27:01.576Z,8.1
2023-04-07T07:28:00.959Z,8.2
2023-04-07T07:29:00.544Z,8.3
2023-04-07T07:30:01.147Z,8.3
2023-04-07T07:31:00.818Z,8.2
2023-04-07T07:32:01.322Z,8.2
2023-04-07T07:33:00.949Z,8.2
2023-04-07T07:34:00.573Z,8.2
2023-04-07T07:35:01.468Z,8.3
2023-04-07T07:36:00.765Z,8.3
2023-04-07T07:37:01.332Z,8.3
2023-04-07T07:38:00.941Z,8.3
2023-04-07T07:39:00.531Z,8.4
2023-04-07T07:40:01.104Z,8.3
2023-04-07T07:41:00.711Z,8.3
2023-04-07T07:42:01.264Z,8.3
2023-04-07T07:43:00.856Z,8.3
2023-04-07T07:44:01.425Z,8.2
2023-04-07T07:45:01.012Z,8.2
2023-04-07T07:46:00.696Z,8.3
2023-04-07T07:47:01.174Z,8.3
2023-04-07T07:48:00.826Z,8.3
2023-04-07T07:49:01.340Z,8.3
2023-04-07T07:50:00.964Z,8.3
2023-04-07T07:51:00.528Z,8.2
2023-04-07T07:52:01.086Z,8.2
2023-04-07T07:53:00.681Z,8.3
2023-04-07T07:54:01.254Z,8.3
2023-04-07T07:55:00.847Z,8.4
2023-04-07T07:56:01.447Z,8.4
2023-04-07T07:57:01.060Z,8.4
2023-04-07T07:58:00.648Z,8.5
2023-04-07T07:59:01.217Z,8.4
2023-04-07T08:00:00.807Z,8.4
2023-04-07T08:01:01.450Z,8.4
2023-04-07T08:02:01.067Z,8.5
2023-04-07T08:03:00.688Z,8.4
2023-04-07T08:04:01.257Z,8.5
2023-04-07T08:05:00.878Z,8.5
2023-04-07T08:06:01.461Z,8.5
2023-04-07T08:07:01.074Z,8.4
2023-04-07T08:08:00.676Z,8.5
2023-04-07T08:09:01.258Z,8.5
2023-04-07T08:10:00.861Z,8.6
2023-04-07T08:11:01.440Z,8.6
2023-04-07T08:12:01.052Z,8.6
2023-04-07T08:13:00.643Z,8.5
2023-04-07T08:14:01.248Z,8.6
2023-04-07T08:15:00.854Z,8.6
2023-04-07T08:16:01.446Z,8.5
2023-04-07T08:17:01.100Z,8.6
2023-04-07T08:18:00.707Z,8.6
2023-04-07T08:19:01.267Z,8.6
2023-04-07T08:20:00.884Z,8.6
2023-04-07T08:21:01.448Z,8.6
2023-04-07T08:22:01.061Z,8.6
2023-04-07T08:23:00.647Z,8.6
2023-04-07T08:24:01.243Z,8.7
2023-04-07T08:25:00.834Z,8.6
2023-04-07T08:26:01.422Z,8.7
2023-04-07T08:27:01.015Z,8.7
2023-04-07T08:28:00.619Z,8.8
2023-04-07T08:29:01.224Z,8.8
2023-04-07T08:30:00.832Z,8.9
2023-04-07T08:31:01.539Z,8.9
2023-04-07T08:32:01.323Z,8.9
2023-04-07T08:33:00.653Z,8.9
2023-04-07T08:34:01.234Z,8.9
2023-04-07T08:35:00.833Z,8.9
2023-04-07T08:36:01.446Z,8.9
2023-04-07T08:37:01.091Z,8.9
2023-04-07T08:38:00.652Z,9
2023-04-07T08:39:01.228Z,9.1
2023-04-07T08:40:00.822Z,9.1
2023-04-07T08:41:01.404Z,9
2023-04-07T08:42:00.986Z,9.2
2023-04-07T08:43:00.575Z,9.2
2023-04-07T08:44:01.180Z,9.1
2023-04-07T08:45:01.227Z,9.2
2023-04-07T08:46:00.886Z,9.3
2023-04-07T08:47:00.486Z,9.2
2023-04-07T08:48:01.087Z,9.2
2023-04-07T08:49:00.729Z,9.3
2023-04-07T08:50:01.302Z,9.4
2023-04-07T08:51:00.903Z,9.5
2023-04-07T08:52:00.485Z,9.4
2023-04-07T08:53:01.090Z,9.4
2023-04-07T08:54:00.703Z,9.4
2023-04-07T08:55:01.250Z,9.4
2023-04-07T08:56:00.837Z,9.4
2023-04-07T08:57:01.410Z,9.4
2023-04-07T08:58:02.184Z,9.5
2023-04-07T08:59:00.899Z,9.5
2023-04-07T09:00:01.240Z,9.4
2023-04-07T09:01:00.915Z,9.5
2023-04-07T09:02:01.430Z,9.5
2023-04-07T09:03:01.178Z,9.3
2023-04-07T09:04:00.666Z,9.2
2023-04-07T09:05:01.232Z,9.3
2023-04-07T09:06:00.827Z,9.4
2023-04-07T09:07:01.429Z,9.5
2023-04-07T09:08:01.031Z,9.4
2023-04-07T09:09:00.619Z,9.3
2023-04-07T09:10:01.238Z,9.4
2023-04-07T09:11:00.843Z,9.5
2023-04-07T09:12:01.436Z,9.5
2023-04-07T09:13:01.027Z,9.5
2023-04-07T09:14:00.639Z,9.6
2023-04-07T09:15:01.203Z,9.6
2023-04-07T09:16:00.833Z,9.6
2023-04-07T09:17:01.373Z,9.5
2023-04-07T09:18:01.028Z,9.3
2023-04-07T09:19:00.564Z,9.3
2023-04-07T09:20:01.137Z,9.4
2023-04-07T09:21:00.722Z,9.4
2023-04-07T09:22:01.315Z,9.6
2023-04-07T09:23:00.918Z,9.6
2023-04-07T09:24:00.486Z,9.7
2023-04-07T09:25:01.074Z,9.7
2023-04-07T09:26:00.689Z,9.7
2023-04-07T09:27:01.249Z,9.8
2023-04-07T09:28:00.866Z,9.8
2023-04-07T09:29:01.450Z,9.7
2023-04-07T09:30:01.054Z,9.7
2023-04-07T09:31:00.639Z,9.8
2023-04-07T09:32:01.279Z,9.8
2023-04-07T09:33:00.944Z,9.9
2023-04-07T09:34:00.495Z,9.7
2023-04-07T09:35:01.059Z,9.6
2023-04-07T09:36:00.670Z,9.7
2023-04-07T09:37:01.232Z,9.8
2023-04-07T09:38:00.833Z,9.8
2023-04-07T09:39:01.425Z,9.8
2023-04-07T09:40:01.012Z,9.8
2023-04-07T09:41:00.631Z,10
2023-04-07T09:42:01.220Z,10
2023-04-07T09:43:00.810Z,9.9
2023-04-07T09:44:01.415Z,10
2023-04-07T09:45:00.999Z,10
2023-04-07T09:46:00.633Z,10
2023-04-07T09:47:01.155Z,10
2023-04-07T09:48:00.761Z,9.9
2023-04-07T09:49:01.337Z,9.9
2023-04-07T09:50:00.932Z,9.9
2023-04-07T09:51:00.529Z,9.9
2023-04-07T09:52:01.082Z,9.8
2023-04-07T09:53:00.672Z,9.8
2023-04-07T09:54:01.257Z,9.8
2023-04-07T09:55:00.846Z,9.8
2023-04-07T09:56:01.471Z,9.8
2023-04-07T09:57:01.089Z,9.8
2023-04-07T09:58:00.684Z,9.8
2023-04-07T09:59:01.330Z,9.8
2023-04-07T10:00:00.908Z,9.8
2023-04-07T10:01:00.506Z,9.9
2023-04-07T10:02:01.191Z,9.9
2023-04-07T10:03:00.868Z,9.8
2023-04-07T10:04:01.367Z,9.8
2023-04-07T10:05:00.950Z,9.9
2023-04-07T10:06:00.530Z,9.9
2023-04-07T10:07:01.110Z,9.9
2023-04-07T10:08:00.708Z,10
2023-04-07T10:09:01.298Z,9.9
2023-04-07T10:10:00.902Z,9.8
2023-04-07T10:11:00.480Z,9.7
2023-04-07T10:12:01.070Z,9.6
2023-04-07T10:13:00.698Z,9.6
2023-04-07T10:14:01.340Z,9.6
2023-04-07T10:15:00.944Z,9.6
2023-04-07T10:16:00.513Z,9.5
2023-04-07T10:17:01.203Z,9.3
2023-04-07T10:18:00.784Z,9.5
2023-04-07T10:19:01.352Z,9.4
2023-04-07T10:20:00.941Z,9.3
2023-04-07T10:21:00.517Z,9.3
2023-04-07T10:22:01.104Z,9.4
2023-04-07T10:23:00.692Z,9.5
2023-04-07T10:24:01.305Z,9.5
2023-04-07T10:25:00.929Z,9.6
2023-04-07T10:26:00.484Z,9.5
2023-04-07T10:27:01.066Z,9.6
2023-04-07T10:28:00.699Z,9.6
2023-04-07T10:29:01.277Z,9.6
2023-04-07T10:30:00.891Z,9.6
2023-04-07T10:31:01.466Z,9.5
2023-04-07T10:32:01.064Z,9.5
2023-04-07T10:33:00.701Z,9.5
2023-04-07T10:34:01.288Z,9.6
2023-04-07T10:35:00.885Z,9.6
2023-04-07T10:36:01.529Z,9.7
2023-04-07T10:37:01.159Z,9.8
2023-04-07T10:38:00.708Z,9.8
2023-04-07T10:39:01.308Z,9.9
2023-04-07T10:40:00.900Z,9.8
2023-04-07T10:41:00.475Z,9.6
2023-04-07T10:42:01.090Z,9.7
2023-04-07T10:43:00.690Z,9.7
2023-04-07T10:44:01.277Z,9.5
2023-04-07T10:45:00.886Z,9.6
2023-04-07T10:46:01.499Z,9.6
2023-04-07T10:47:01.130Z,9.7
2023-04-07T10:48:00.722Z,9.6
2023-04-07T10:49:01.286Z,9.6
2023-04-07T10:50:00.876Z,9.6
2023-04-07T10:51:01.462Z,9.6
2023-04-07T10:52:01.078Z,9.8
2023-04-07T10:53:00.668Z,9.9
2023-04-07T10:54:01.256Z,10
2023-04-07T10:55:00.849Z,9.9
2023-04-07T10:56:01.432Z,10.2
2023-04-07T10:57:01.039Z,10.1
2023-04-07T10:58:00.652Z,10
2023-04-07T10:59:01.215Z,10.1
2023-04-07T11:00:00.843Z,10.1
2023-04-07T11:01:01.387Z,10.1
2023-04-07T11:02:01.060Z,10.1
2023-04-07T11:03:00.872Z,10.4
2023-04-07T11:04:01.393Z,10.4
2023-04-07T11:05:00.893Z,10.4
2023-04-07T11:06:01.474Z,10.3
2023-04-07T11:07:01.064Z,10.2
2023-04-07T11:08:00.656Z,10.2
2023-04-07T11:09:01.237Z,10.2
2023-04-07T11:10:00.841Z,10.3
2023-04-07T11:11:01.416Z,10.3
2023-04-07T11:12:01.006Z,10.3
2023-04-07T11:13:00.600Z,10.4
2023-04-07T11:14:01.186Z,10.2
2023-04-07T11:15:00.801Z,9.9
2023-04-07T11:16:01.406Z,9.8
2023-04-07T11:17:01.021Z,9.7
2023-04-07T11:18:00.669Z,9.6
2023-04-07T11:19:01.202Z,9.5
2023-04-07T11:20:00.811Z,9.7
2023-04-07T11:21:01.379Z,9.5
2023-04-07T11:22:00.970Z,9.7
2023-04-07T11:23:00.543Z,9.6
2023-04-07T11:24:01.115Z,9.6
2023-04-07T11:25:00.735Z,9.5
2023-04-07T11:26:01.287Z,9.6
2023-04-07T11:27:00.881Z,9.6
2023-04-07T11:28:01.464Z,9.6
2023-04-07T11:29:01.064Z,9.6
2023-04-07T11:30:00.678Z,9.6
2023-04-07T11:31:01.231Z,9.7
2023-04-07T11:32:00.846Z,9.7
2023-04-07T11:33:01.461Z,9.6
2023-04-07T11:34:01.151Z,9.7
2023-04-07T11:35:00.677Z,9.7
2023-04-07T11:36:01.331Z,9.8
2023-04-07T11:37:00.922Z,9.8
2023-04-07T11:38:00.510Z,9.9
2023-04-07T11:39:01.079Z,10
2023-04-07T11:40:00.685Z,10
2023-04-07T11:41:01.273Z,9.9
2023-04-07T11:42:00.863Z,9.9
2023-04-07T11:43:01.449Z,9.9
2023-04-07T11:44:01.040Z,9.9
2023-04-07T11:45:00.628Z,9.9
2023-04-07T11:46:01.221Z,9.9
2023-04-07T11:47:00.864Z,9.9
2023-04-07T11:48:01.406Z,9.9
2023-04-07T11:49:01.001Z,9.8
2023-04-07T11:50:00.625Z,9.8
2023-04-07T11:51:01.197Z,9.8
2023-04-07T11:52:00.794Z,9.8
2023-04-07T11:53:01.376Z,9.8
2023-04-07T11:54:00.967Z,9.8
2023-04-07T11:55:00.550Z,9.8
2023-04-07T11:56:01.152Z,9.9
2023-04-07T11:57:00.733Z,10
2023-04-07T11:58:01.326Z,9.9
2023-04-07T11:59:00.915Z,9.9
2023-04-07T12:00:00.511Z,10.1
2023-04-07T12:01:01.119Z,9.9
2023-04-07T12:02:00.760Z,10
2023-04-07T12:03:01.541Z,10
2023-04-07T12:04:01.050Z,10
2023-04-07T12:05:00.550Z,10.1
2023-04-07T12:06:01.132Z,10.1
2023-04-07T12:07:00.738Z,10.1
2023-04-07T12:08:01.329Z,10.2
2023-04-07T12:09:00.945Z,10.2
2023-04-07T12:10:00.533Z,10.1
2023-04-07T12:11:01.132Z,10
2023-04-07T12:12:00.760Z,10
2023-04-07T12:13:01.319Z,10.1
2023-04-07T12:14:00.903Z,10
2023-04-07T12:15:00.492Z,10.1
2023-04-07T12:16:01.148Z,10.2
2023-04-07T12:17:00.755Z,10.1
2023-04-07T12:18:01.417Z,10.1
2023-04-07T12:19:00.979Z,10.1
2023-04-07T12:20:00.565Z,10.1
2023-04-07T12:21:01.157Z,10.1
2023-04-07T12:22:00.861Z,10
2023-04-07T12:23:01.341Z,9.9
2023-04-07T12:24:00.969Z,9.8
2023-04-07T12:25:00.547Z,9.9
2023-04-07T12:26:01.118Z,10
2023-04-07T12:27:00.719Z,10
2023-04-07T12:28:01.342Z,9.9
2023-04-07T12:29:00.936Z,9.9
2023-04-07T12:30:00.531Z,9.9
2023-04-07T12:31:01.105Z,9.8
2023-04-07T12:32:00.750Z,9.9
2023-04-07T12:33:01.311Z,9.9
2023-04-07T12:34:00.928Z,9.8
2023-04-07T12:35:00.515Z,9.9
2023-04-07T12:36:01.112Z,9.9
2023-04-07T12:37:00.763Z,10
2023-04-07T12:38:01.414Z,10.1
2023-04-07T12:39:01.005Z,10.1
2023-04-07T12:40:00.744Z,10
2023-04-07T12:41:01.146Z,10
2023-04-07T12:42:00.754Z,9.8
2023-04-07T12:43:01.329Z,9.8
2023-04-07T12:44:00.927Z,9.9
2023-04-07T12:45:00.524Z,9.9
2023-04-07T12:46:01.142Z,9.9
2023-04-07T12:47:00.767Z,9.8
2023-04-07T12:48:01.448Z,9.8
2023-04-07T12:49:01.002Z,9.8
2023-04-07T12:50:00.591Z,9.7
2023-04-07T12:51:01.150Z,9.6
2023-04-07T12:52:00.770Z,9.5
2023-04-07T12:53:01.335Z,9.6
2023-04-07T12:54:00.951Z,9.7
2023-04-07T12:55:00.495Z,9.6
2023-04-07T12:56:01.077Z,9.7
2023-04-07T12:57:00.697Z,9.7
2023-04-07T12:58:01.274Z,9.8
2023-04-07T12:59:00.884Z,9.8
2023-04-07T13:00:01.452Z,9.8
2023-04-07T13:01:01.090Z,9.8
2023-04-07T13:02:00.764Z,9.8
2023-04-07T13:03:01.465Z,9.8
2023-04-07T13:04:01.017Z,9.8
2023-04-07T13:05:00.514Z,9.6
2023-04-07T13:06:01.073Z,9.6
2023-04-07T13:07:00.695Z,9.7
2023-04-07T13:08:01.284Z,9.6
2023-04-07T13:09:00.906Z,9.6
2023-04-07T13:10:00.504Z,9.7
2023-04-07T13:11:01.057Z,9.7
2023-04-07T13:12:00.658Z,9.8
2023-04-07T13:13:01.245Z,9.9
2023-04-07T13:14:01.494Z,9.8
2023-04-07T13:15:01.235Z,9.8
2023-04-07T13:16:00.840Z,10
2023-04-07T13:17:01.451Z,9.9
2023-04-07T13:18:01.182Z,10
2023-04-07T13:19:00.681Z,10
2023-04-07T13:20:01.363Z,9.8
2023-04-07T13:22:00.794Z,9.9
2023-04-07T13:23:05.893Z,9.9
2023-04-07T13:24:00.633Z,9.9
2023-04-07T13:25:02.020Z,9.9
2023-04-07T13:26:00.719Z,9.8
2023-04-07T13:27:01.326Z,9.9
2023-04-07T13:28:00.911Z,10.1
2023-04-07T13:29:00.495Z,10.1
2023-04-07T13:30:01.101Z,10.1
2023-04-07T13:31:00.783Z,10.1
2023-04-07T13:32:01.273Z,10.2
2023-04-07T13:33:00.870Z,10.3
2023-04-07T13:34:01.447Z,10.2
2023-04-07T13:35:01.060Z,10.3
2023-04-07T13:36:00.694Z,10.3
2023-04-07T13:37:01.237Z,10.2
2023-04-07T13:38:00.827Z,10.1
2023-04-07T13:39:01.426Z,10
2023-04-07T13:40:01.020Z,10
2023-04-07T13:41:00.608Z,9.8
2023-04-07T13:42:01.222Z,9.8
2023-04-07T13:43:00.819Z,9.8
2023-04-07T13:44:01.417Z,9.7
2023-04-07T13:45:01.011Z,9.7
2023-04-07T13:46:00.668Z,9.8
2023-04-07T13:47:01.241Z,9.7